Terminal Aerodrome Forecast
Issued by NWS Blacksburg, VA

Home | Current Version | Previous Version | Text Only | Print | Product List | Glossary On
Versions: 1 2 3 4 5 6 7 8 9 10 11 12 13 14 15 16 17 18 19 20 21 22 23 24 25 26 27 28 29 30 31 32 33 34 35 36 37 38 39 40 41 42 43 44 45 46 47 48 49 50
000
FTUS41 KRNK 292122 AAA
TAFROA
TAF AMD
KROA 292122Z 2921/3018 26007KT P6SM VCSH SCT017 BKN035
     FM292200 20006KT P6SM VCSH SCT015 BKN060
     FM292300 16009KT P6SM -SHRA BKN025
     FM300000 VRB03KT P6SM BKN050
     FM301200 VRB03KT P6SM BKN100 BKN250=

USA.gov is the U.S. government's official web portal to all federal, state and local government web resources and services.